Time;durP1;ratioP1;P1;durP2;ratioP2;P2;SDS_P1;SDS_P2;PMS_P1;PMS_P2;Temp;Humidity;BMP_temperature;BMP_pressure;BME280_temperature;BME280_humidity;BME280_pressure;Samples;Min_cycle;Max_cycle;Signal;HPM_P1;HPM_P2
2021/01/01 00:02:47;;;;;;;117.67;61.07;;;;;1.60;100139.00;;;;10438728;28;20292;-74
2021/01/01 00:07:50;;;;;;;128.23;61.83;;;;;1.60;100143.00;;;;10455750;28;20530;-74
2021/01/01 00:12:52;;;;;;;117.43;59.70;;;;;1.60;100152.00;;;;10438995;28;20191;-74
2021/01/01 00:17:53;;;;;;;113.60;59.13;;;;;1.60;100144.00;;;;10438155;28;20178;-74
2021/01/01 00:22:54;;;;;;;101.77;53.63;;;;;1.40;100151.00;;;;10421895;28;20202;-74
2021/01/01 00:27:56;;;;;;;93.03;50.93;;;;;1.20;100147.00;;;;10421045;28;20245;-74
2021/01/01 00:32:57;;;;;;;95.50;52.33;;;;;1.20;100146.00;;;;10438109;28;20194;-74
2021/01/01 00:37:58;;;;;;;92.53;50.10;;;;;1.20;100147.00;;;;10437912;28;21010;-74
2021/01/01 00:43:01;;;;;;;110.63;51.07;;;;;1.20;100148.00;;;;10421520;28;20222;-74
2021/01/01 00:48:03;;;;;;;106.17;53.10;;;;;1.20;100143.00;;;;10420719;28;20241;-74
2021/01/01 00:53:04;;;;;;;99.90;51.23;;;;;1.10;100148.00;;;;10437169;28;20622;-75
2021/01/01 00:58:06;;;;;;;103.57;52.37;;;;;1.10;100156.00;;;;10438168;28;20547;-74
2021/01/01 01:03:07;;;;;;;103.57;50.97;;;;;1.00;100147.00;;;;10436950;28;20213;-74
2021/01/01 01:08:09;;;;;;;94.13;49.40;;;;;1.00;100151.00;;;;10453419;28;20963;-74
2021/01/01 01:13:11;;;;;;;84.47;46.63;;;;;1.00;100162.00;;;;10432057;28;20198;-74
2021/01/01 01:18:12;;;;;;;103.53;51.97;;;;;1.00;100164.00;;;;10402296;28;20256;-74
2021/01/01 01:23:13;;;;;;;106.07;51.53;;;;;1.10;100165.00;;;;10404839;28;20244;-74
2021/01/01 01:28:15;;;;;;;119.67;59.27;;;;;1.10;100174.00;;;;10421737;28;20210;-75
2021/01/01 01:33:16;;;;;;;122.80;59.07;;;;;1.20;100179.00;;;;10403858;28;20191;-74
2021/01/01 01:38:18;;;;;;;101.77;52.27;;;;;1.20;100178.00;;;;10404055;28;20222;-74
2021/01/01 01:43:22;;;;;;;107.50;53.43;;;;;1.20;100188.00;;;;10386841;28;20547;-74
2021/01/01 01:48:36;;;;;;;108.90;53.60;;;;;1.20;100182.00;;;;10403283;28;20222;-74
2021/01/01 01:53:41;;;;;;;111.00;53.20;;;;;1.20;100194.00;;;;10386615;28;20205;-74
2021/01/01 01:58:46;;;;;;;111.20;52.23;;;;;1.30;100200.00;;;;10402440;28;20241;-75
2021/01/01 02:03:49;;;;;;;109.53;51.53;;;;;1.40;100212.00;;;;10402779;28;20194;-74
2021/01/01 02:08:51;;;;;;;104.53;50.80;;;;;1.40;100207.00;;;;10418513;28;20238;-74
2021/01/01 02:13:54;;;;;;;111.87;52.73;;;;;1.40;100208.00;;;;10385542;28;20260;-74
2021/01/01 02:18:55;;;;;;;103.10;50.50;;;;;1.40;100217.00;;;;10385638;28;20187;-74
2021/01/01 02:23:56;;;;;;;102.87;48.43;;;;;1.50;100217.00;;;;10386100;28;20531;-74
2021/01/01 02:28:57;;;;;;;104.50;50.03;;;;;1.50;100215.00;;;;10384766;28;20649;-75
2021/01/01 02:33:59;;;;;;;106.07;45.93;;;;;1.50;100217.00;;;;10384971;28;20198;-74
2021/01/01 02:39:01;;;;;;;115.23;48.50;;;;;1.50;100226.00;;;;10401280;28;20230;-74
2021/01/01 02:44:03;;;;;;;105.10;46.87;;;;;1.50;100228.00;;;;10401010;28;20277;-74
2021/01/01 02:49:04;;;;;;;99.07;47.50;;;;;1.50;100224.00;;;;10426792;28;20229;-74
2021/01/01 02:54:06;;;;;;;101.73;46.70;;;;;1.50;100225.00;;;;10426003;28;20270;-75
2021/01/01 02:59:08;;;;;;;113.37;48.87;;;;;1.50;100230.00;;;;10441960;28;20573;-74
2021/01/01 03:04:09;;;;;;;106.97;47.67;;;;;1.50;100241.00;;;;10441197;28;20194;-74
2021/01/01 03:09:10;;;;;;;113.20;49.13;;;;;1.50;100239.00;;;;10441017;28;20302;-74
2021/01/01 03:14:12;;;;;;;105.07;46.47;;;;;1.50;100234.00;;;;10407796;28;20247;-74
2021/01/01 03:19:13;;;;;;;104.93;46.10;;;;;1.60;100234.00;;;;10459132;28;20190;-74
2021/01/01 03:24:14;;;;;;;107.23;45.40;;;;;1.60;100239.00;;;;10441168;28;20277;-74
2021/01/01 03:29:16;;;;;;;99.73;46.87;;;;;1.70;100244.00;;;;10440616;28;20746;-74
2021/01/01 03:34:17;;;;;;;95.37;42.37;;;;;1.70;100240.00;;;;10440082;28;20194;-74
2021/01/01 03:39:18;;;;;;;96.77;42.97;;;;;1.70;100232.00;;;;10457352;28;20197;-74
2021/01/01 03:44:19;;;;;;;78.57;39.47;;;;;1.70;100244.00;;;;10425317;28;20211;-74
2021/01/01 03:49:21;;;;;;;77.90;37.73;;;;;1.60;100238.00;;;;10398919;28;20215;-74
2021/01/01 03:54:22;;;;;;;76.87;38.27;;;;;1.50;100232.00;;;;10398876;28;20202;-75
2021/01/01 03:59:23;;;;;;;71.33;37.63;;;;;1.30;100239.00;;;;10381667;28;20217;-75
2021/01/01 04:04:25;;;;;;;76.87;37.60;;;;;1.10;100238.00;;;;10381499;28;20222;-74
2021/01/01 04:09:26;;;;;;;70.47;38.83;;;;;0.90;100249.00;;;;10397617;28;20210;-74
2021/01/01 04:14:27;;;;;;;69.37;37.00;;;;;0.80;100251.00;;;;10396844;28;20236;-74
2021/01/01 04:19:28;;;;;;;63.20;33.37;;;;;0.70;100250.00;;;;10422143;28;20281;-74
2021/01/01 04:24:30;;;;;;;56.67;33.17;;;;;0.50;100247.00;;;;10438435;28;20276;-74
2021/01/01 04:29:31;;;;;;;52.47;30.43;;;;;0.40;100242.00;;;;10437880;28;20238;-74
2021/01/01 04:34:32;;;;;;;55.10;30.23;;;;;0.30;100240.00;;;;10454317;28;20248;-74
2021/01/01 04:39:34;;;;;;;47.87;26.43;;;;;0.20;100247.00;;;;10422123;28;20574;-74
2021/01/01 04:44:35;;;;;;;45.40;26.63;;;;;0.10;100240.00;;;;10437343;28;20317;-74
2021/01/01 04:49:36;;;;;;;47.50;26.27;;;;;0.10;100248.00;;;;10421036;28;20714;-74
2021/01/01 04:54:42;;;;;;;47.90;27.57;;;;;0.00;100241.00;;;;10454713;28;20202;-74
2021/01/01 04:59:44;;;;;;;50.67;28.97;;;;;0.10;100246.00;;;;10404579;28;20313;-74
2021/01/01 05:04:46;;;;;;;56.93;30.87;;;;;0.10;100248.00;;;;10454515;28;20186;-74
2021/01/01 05:09:48;;;;;;;61.10;32.43;;;;;0.20;100252.00;;;;10454248;28;20202;-74
2021/01/01 05:14:53;;;;;;;57.63;31.83;;;;;0.30;100252.00;;;;10454174;28;20265;-74
2021/01/01 05:20:09;;;;;;;70.60;34.13;;;;;0.50;100257.00;;;;10455024;28;20233;-74
2021/01/01 05:25:17;;;;;;;68.67;34.80;;;;;0.60;100254.00;;;;10453943;28;20225;-74
2021/01/01 05:30:30;;;;;;;71.63;34.17;;;;;0.80;100258.00;;;;10437265;28;20217;-74
2021/01/01 05:35:31;;;;;;;64.03;35.80;;;;;0.80;100260.00;;;;10436650;28;20248;-74
2021/01/01 05:40:33;;;;;;;70.07;34.90;;;;;0.90;100274.00;;;;10420101;28;20198;-74
2021/01/01 05:45:34;;;;;;;69.30;37.03;;;;;1.00;100279.00;;;;10436709;28;20868;-74
2021/01/01 05:50:36;;;;;;;61.67;34.97;;;;;1.00;100275.00;;;;10436753;28;20669;-75
2021/01/01 05:55:38;;;;;;;66.30;35.60;;;;;1.00;100274.00;;;;10435802;28;20329;-74
2021/01/01 06:00:39;;;;;;;61.97;33.57;;;;;0.90;100286.00;;;;10436122;28;20680;-74
2021/01/01 06:06:06;;;;;;;59.47;32.97;;;;;0.90;100295.00;;;;10460802;28;20201;-74
2021/01/01 06:11:13;;;;;;;56.80;32.87;;;;;0.90;100293.00;;;;10427285;28;20281;-74
2021/01/01 06:16:20;;;;;;;62.97;32.93;;;;;0.90;100295.00;;;;10412759;28;20682;-74
2021/01/01 06:21:33;;;;;;;54.13;32.17;;;;;0.90;100305.00;;;;10401638;28;20249;-74
2021/01/01 06:26:34;;;;;;;53.40;31.33;;;;;0.90;100307.00;;;;10385039;28;20190;-75
2021/01/01 06:31:36;;;;;;;50.67;32.27;;;;;0.80;100306.00;;;;10401800;28;20308;-74
2021/01/01 06:36:38;;;;;;;56.80;32.40;;;;;0.80;100310.00;;;;10384757;28;20258;-74
2021/01/01 06:41:46;;;;;;;53.20;32.57;;;;;0.90;100323.00;;;;10384683;28;20221;-74
2021/01/01 06:46:48;;;;;;;61.17;32.37;;;;;0.90;100325.00;;;;10419525;28;20225;-74
2021/01/01 06:52:25;;;;;;;53.83;31.87;;;;;0.90;100332.00;;;;10458658;28;20202;-74
2021/01/01 06:57:49;;;;;;;47.17;30.27;;;;;0.90;100333.00;;;;10441478;28;20193;-74
2021/01/01 07:02:51;;;;;;;51.00;30.17;;;;;0.90;100340.00;;;;10441381;28;20240;-74
2021/01/01 07:07:52;;;;;;;51.43;31.27;;;;;0.80;100347.00;;;;10441693;28;20202;-74
2021/01/01 07:13:16;;;;;;;51.83;30.27;;;;;0.90;100349.00;;;;10439704;28;20198;-74
2021/01/01 07:18:17;;;;;;;58.23;33.53;;;;;0.90;100357.00;;;;10425137;28;20368;-74
2021/01/01 07:23:19;;;;;;;55.50;33.57;;;;;1.00;100360.00;;;;10457766;28;20190;-74
2021/01/01 07:28:22;;;;;;;69.83;41.53;;;;;1.00;100363.00;;;;10440740;28;20206;-74
2021/01/01 07:33:25;;;;;;;55.73;34.23;;;;;1.10;100364.00;;;;10458297;28;20190;-74
2021/01/01 07:38:28;;;;;;;58.07;34.97;;;;;1.10;100377.00;;;;10456261;28;20190;-74
2021/01/01 07:43:30;;;;;;;63.17;34.30;;;;;1.10;100374.00;;;;10457946;28;20264;-74
2021/01/01 07:48:31;;;;;;;55.50;32.10;;;;;1.20;100373.00;;;;10416615;28;20268;-74
2021/01/01 07:53:34;;;;;;;56.23;33.43;;;;;1.30;100383.00;;;;10439951;28;20222;-74
2021/01/01 07:58:36;;;;;;;50.63;31.30;;;;;1.30;100374.00;;;;10456193;28;20256;-74
2021/01/01 08:03:39;;;;;;;51.93;32.20;;;;;1.40;100384.00;;;;10439458;28;20198;-74
2021/01/01 08:08:41;;;;;;;53.57;32.87;;;;;1.40;100385.00;;;;10422546;28;20218;-74
2021/01/01 08:13:42;;;;;;;47.30;31.10;;;;;1.50;100385.00;;;;10412070;28;20654;-74
2021/01/01 08:18:43;;;;;;;53.70;32.90;;;;;1.60;100392.00;;;;10414227;28;20278;-74
2021/01/01 08:24:03;;;;;;;48.67;32.13;;;;;1.70;100390.00;;;;10451512;28;20193;-74
2021/01/01 08:29:09;;;;;;;56.93;34.07;;;;;1.80;100400.00;;;;10421702;28;20231;-74
2021/01/01 08:34:10;;;;;;;53.20;31.17;;;;;2.00;100396.00;;;;10421240;28;20248;-74
2021/01/01 08:39:14;;;;;;;45.23;30.13;;;;;2.10;100398.00;;;;10421606;28;20211;-74
2021/01/01 08:44:16;;;;;;;49.43;31.17;;;;;2.20;100402.00;;;;10405284;28;20214;-74
2021/01/01 08:49:20;;;;;;;47.23;30.03;;;;;2.30;100401.00;;;;10420754;28;20214;-74
2021/01/01 08:54:26;;;;;;;47.07;29.40;;;;;2.40;100406.00;;;;10404537;28;20198;-74
2021/01/01 08:59:29;;;;;;;55.13;35.43;;;;;2.50;100414.00;;;;10421563;28;20198;-75
2021/01/01 09:04:31;;;;;;;51.20;34.20;;;;;2.60;100418.00;;;;10437260;28;20217;-74
2021/01/01 09:09:33;;;;;;;53.80;33.87;;;;;2.60;100422.00;;;;10437369;28;20263;-74
2021/01/01 09:14:45;;;;;;;49.70;34.37;;;;;2.70;100425.00;;;;10404845;28;20248;-74
2021/01/01 09:19:47;;;;;;;47.40;31.27;;;;;2.80;100439.00;;;;10453848;28;20182;-74
2021/01/01 09:24:48;;;;;;;51.33;31.93;;;;;3.00;100439.00;;;;10437715;28;20217;-74
2021/01/01 09:29:49;;;;;;;50.13;34.37;;;;;3.10;100436.00;;;;10455465;28;20234;-75
2021/01/01 09:34:51;;;;;;;52.93;34.43;;;;;3.30;100443.00;;;;10453903;28;20194;-74
2021/01/01 09:39:52;;;;;;;45.43;31.17;;;;;3.50;100438.00;;;;10411286;28;20281;-74
2021/01/01 09:44:53;;;;;;;41.23;28.50;;;;;3.60;100453.00;;;;10435522;28;20271;-74
2021/01/01 09:49:54;;;;;;;46.40;31.87;;;;;3.70;100454.00;;;;10462426;28;20210;-74
2021/01/01 09:54:56;;;;;;;45.67;31.13;;;;;3.90;100461.00;;;;10404171;28;20194;-74
2021/01/01 09:59:58;;;;;;;39.93;27.40;;;;;3.90;100459.00;;;;10387305;28;20209;-74
2021/01/01 10:05:13;;;;;;;40.90;25.50;;;;;4.00;100462.00;;;;10386769;28;20917;-74
2021/01/01 10:10:15;;;;;;;47.20;29.03;;;;;4.10;100460.00;;;;10403456;28;20215;-74
2021/01/01 10:15:16;;;;;;;39.60;26.80;;;;;4.10;100454.00;;;;10409252;28;20194;-74
2021/01/01 10:20:17;;;;;;;43.63;26.57;;;;;4.20;100466.00;;;;10460604;28;20828;-74
2021/01/01 10:25:22;;;;;;;38.30;23.30;;;;;4.20;100466.00;;;;10443296;28;20194;-74
2021/01/01 10:30:24;;;;;;;34.87;23.67;;;;;4.20;100465.00;;;;10442854;28;20237;-74
2021/01/01 10:35:25;;;;;;;38.20;24.67;;;;;4.30;100471.00;;;;10443036;28;20711;-74
2021/01/01 10:40:26;;;;;;;42.53;25.70;;;;;4.40;100465.00;;;;10460112;28;20512;-74
2021/01/01 10:45:28;;;;;;;30.10;22.00;;;;;4.40;100474.00;;;;10460403;28;20218;-74
2021/01/01 10:50:29;;;;;;;32.40;22.50;;;;;4.40;100479.00;;;;10442212;28;20214;-74
2021/01/01 10:55:31;;;;;;;32.53;22.13;;;;;4.30;100479.00;;;;10459571;28;20195;-74
2021/01/01 11:00:33;;;;;;;36.23;22.33;;;;;4.10;100480.00;;;;10441771;28;20277;-74
2021/01/01 11:05:35;;;;;;;32.47;20.40;;;;;4.00;100481.00;;;;10425202;28;20197;-74
2021/01/01 11:10:36;;;;;;;27.80;20.40;;;;;4.20;100479.00;;;;10424807;28;20265;-74
2021/01/01 12:25:11;;;;;;;32.90;25.20;;;;;5.30;100446.00;;;;10422289;28;20831;-75
2021/01/01 12:30:15;;;;;;;26.37;17.20;;;;;6.10;100445.00;;;;10439215;28;20271;-75
2021/01/01 12:35:16;;;;;;;20.23;16.03;;;;;6.30;100449.00;;;;10422769;28;20546;-75
2021/01/01 12:40:18;;;;;;;24.70;16.77;;;;;6.30;100446.00;;;;10438456;28;20276;-75
2021/01/01 12:45:20;;;;;;;24.00;16.63;;;;;6.60;100442.00;;;;10425104;28;20750;-75
2021/01/01 12:50:22;;;;;;;22.33;16.23;;;;;7.20;100431.00;;;;10437490;28;20234;-75
2021/01/01 12:55:26;;;;;;;21.03;16.20;;;;;7.30;100436.00;;;;10454798;28;20281;-75
2021/01/01 13:00:29;;;;;;;21.47;14.30;;;;;7.20;100442.00;;;;10453684;28;20205;-75
2021/01/01 13:05:30;;;;;;;19.40;15.37;;;;;7.10;100447.00;;;;10421322;28;20209;-75
2021/01/01 13:10:32;;;;;;;20.87;14.20;;;;;7.10;100443.00;;;;10396145;28;20211;-75
2021/01/01 13:15:33;;;;;;;18.53;13.13;;;;;6.90;100436.00;;;;10412656;28;20198;-74
2021/01/01 13:20:35;;;;;;;18.13;12.80;;;;;6.80;100442.00;;;;10445592;28;20186;-75
2021/01/01 13:25:38;;;;;;;17.17;12.63;;;;;6.80;100446.00;;;;10461767;28;20186;-75
2021/01/01 13:30:39;;;;;;;20.03;13.53;;;;;6.80;100442.00;;;;10429141;28;20210;-75
2021/01/01 13:35:44;;;;;;;18.67;13.90;;;;;6.70;100443.00;;;;10427804;28;20190;-75
2021/01/01 13:40:45;;;;;;;18.80;12.47;;;;;6.70;100445.00;;;;10445327;28;20190;-75
2021/01/01 13:45:47;;;;;;;20.93;13.53;;;;;6.70;100445.00;;;;10444943;28;20284;-74
2021/01/01 13:50:48;;;;;;;18.57;14.00;;;;;6.50;100442.00;;;;10424036;28;20752;-75
2021/01/01 13:55:49;;;;;;;17.90;13.67;;;;;6.40;100449.00;;;;10370690;28;20183;-75
2021/01/01 14:00:51;;;;;;;19.03;12.90;;;;;6.40;100447.00;;;;10402720;28;20212;-75
2021/01/01 14:05:52;;;;;;;18.23;13.23;;;;;6.30;100456.00;;;;10386020;28;20191;-75
2021/01/01 14:10:54;;;;;;;23.20;12.83;;;;;6.20;100458.00;;;;10386049;28;20211;-75
2021/01/01 14:15:55;;;;;;;16.93;12.90;;;;;6.10;100458.00;;;;10397661;28;20324;-75
2021/01/01 14:20:57;;;;;;;15.10;11.20;;;;;5.90;100451.00;;;;10442716;28;20194;-75
2021/01/01 14:25:59;;;;;;;15.50;11.17;;;;;5.80;100461.00;;;;10403265;28;20973;-74
2021/01/01 14:31:01;;;;;;;15.80;11.57;;;;;5.70;100463.00;;;;10369660;28;20685;-75
2021/01/01 14:36:03;;;;;;;16.93;10.73;;;;;5.50;100466.00;;;;10401771;28;20194;-75
2021/01/01 14:41:04;;;;;;;14.70;10.77;;;;;5.40;100478.00;;;;10406901;28;20237;-75
2021/01/01 14:46:10;;;;;;;17.30;10.10;;;;;5.30;100481.00;;;;10440893;28;20337;-75
2021/01/01 14:51:11;;;;;;;18.37;11.33;;;;;5.20;100481.00;;;;10458725;28;20930;-75
2021/01/01 14:56:12;;;;;;;12.23;10.13;;;;;5.10;100484.00;;;;10458858;28;20198;-76
2021/01/01 15:01:14;;;;;;;12.20;9.77;;;;;5.00;100487.00;;;;10458010;28;20256;-75
2021/01/01 15:06:15;;;;;;;15.27;10.33;;;;;4.80;100496.00;;;;10400158;28;20263;-75
2021/01/01 15:11:17;;;;;;;13.53;9.27;;;;;4.70;100498.00;;;;10411141;28;20694;-75
2021/01/01 15:16:19;;;;;;;14.87;9.10;;;;;4.50;100502.00;;;;10427517;28;20686;-75
2021/01/01 15:21:21;;;;;;;16.33;10.83;;;;;4.50;100510.00;;;;10424666;28;20198;-75
2021/01/01 15:26:23;;;;;;;15.93;11.00;;;;;4.50;100514.00;;;;10427781;28;20202;-75
2021/01/01 15:31:25;;;;;;;17.40;11.97;;;;;4.40;100509.00;;;;10435725;28;20262;-75
2021/01/01 15:36:27;;;;;;;15.57;11.67;;;;;4.20;100524.00;;;;10447999;28;20206;-75
2021/01/01 15:41:29;;;;;;;20.63;13.47;;;;;3.90;100526.00;;;;10428265;28;20224;-75
2021/01/01 15:46:30;;;;;;;16.67;12.40;;;;;3.70;100524.00;;;;10452178;28;20432;-75
2021/01/01 15:51:31;;;;;;;19.23;11.20;;;;;3.40;100524.00;;;;10455101;28;20258;-75
2021/01/01 15:56:33;;;;;;;15.60;10.33;;;;;3.20;100545.00;;;;10440545;28;20229;-75
2021/01/01 16:01:38;;;;;;;15.80;10.70;;;;;2.90;100546.00;;;;10449842;28;20197;-75
2021/01/01 16:06:47;;;;;;;19.77;11.07;;;;;2.80;100557.00;;;;10416582;28;20237;-74
2021/01/01 16:11:48;;;;;;;16.30;10.90;;;;;2.70;100550.00;;;;10401131;28;20238;-75
2021/01/01 16:16:50;;;;;;;19.33;11.93;;;;;2.70;100553.00;;;;10398046;28;20198;-75
2021/01/01 16:21:51;;;;;;;19.30;12.77;;;;;2.80;100562.00;;;;10426566;28;20203;-75
2021/01/01 16:26:52;;;;;;;25.47;14.20;;;;;2.90;100561.00;;;;10412316;28;20265;-75
2021/01/01 16:31:53;;;;;;;19.33;11.77;;;;;3.00;100564.00;;;;10413871;28;20736;-75
2021/01/01 16:36:55;;;;;;;21.23;14.10;;;;;3.10;100562.00;;;;10414126;28;20680;-75
2021/01/01 16:41:57;;;;;;;23.43;14.10;;;;;3.30;100571.00;;;;10420159;28;20202;-74
2021/01/01 16:46:59;;;;;;;18.60;13.90;;;;;3.30;100572.00;;;;10428569;28;20191;-75
2021/01/01 16:52:04;;;;;;;22.77;14.83;;;;;3.20;100572.00;;;;10415579;28;20222;-75
2021/01/01 16:57:08;;;;;;;27.17;16.50;;;;;3.00;100583.00;;;;10392359;28;20838;-74
2021/01/01 17:02:09;;;;;;;25.63;17.40;;;;;2.80;100575.00;;;;10447442;28;20197;-74
2021/01/01 17:07:10;;;;;;;20.57;13.83;;;;;2.60;100581.00;;;;10444254;28;20297;-74
2021/01/01 17:12:12;;;;;;;21.57;14.23;;;;;2.30;100580.00;;;;10404731;28;20289;-75
2021/01/01 17:17:14;;;;;;;23.57;13.40;;;;;2.20;100577.00;;;;10449286;28;20198;-74
2021/01/01 17:22:15;;;;;;;23.20;15.20;;;;;2.10;100590.00;;;;10431213;28;20253;-75
2021/01/01 17:27:19;;;;;;;27.43;17.70;;;;;2.00;100591.00;;;;10425983;28;20269;-74
2021/01/01 17:32:20;;;;;;;29.43;19.00;;;;;1.90;100591.00;;;;10427160;28;20705;-75
2021/01/01 17:37:22;;;;;;;24.83;16.80;;;;;1.80;100601.00;;;;10394219;28;20232;-75
2021/01/01 17:42:26;;;;;;;26.30;17.53;;;;;1.70;100607.00;;;;10393451;28;20214;-75
2021/01/01 17:47:27;;;;;;;23.07;16.57;;;;;1.60;100599.00;;;;10452272;28;20198;-75
2021/01/01 17:52:29;;;;;;;27.77;18.43;;;;;1.50;100605.00;;;;10434752;28;20278;-75
2021/01/01 17:57:30;;;;;;;29.70;18.00;;;;;1.40;100609.00;;;;10410038;28;20186;-75
2021/01/01 18:02:33;;;;;;;28.93;19.13;;;;;1.40;100616.00;;;;10460336;28;20244;-75
2021/01/01 18:07:37;;;;;;;31.17;20.00;;;;;1.40;100625.00;;;;10441777;28;20277;-75
2021/01/01 18:12:41;;;;;;;29.63;18.80;;;;;1.50;100622.00;;;;10481596;28;20260;-75
2021/01/01 18:17:43;;;;;;;29.27;18.37;;;;;1.50;100627.00;;;;10420332;28;20646;-75
2021/01/01 18:22:44;;;;;;;35.63;19.80;;;;;1.50;100627.00;;;;10438574;28;20222;-75
2021/01/01 18:27:51;;;;;;;28.83;18.73;;;;;1.60;100635.00;;;;10424864;28;20235;-75
2021/01/01 18:32:55;;;;;;;32.37;19.40;;;;;1.60;100631.00;;;;10426328;28;20689;-75
2021/01/01 18:38:03;;;;;;;33.20;20.10;;;;;1.60;100640.00;;;;10394999;28;20194;-75
2021/01/01 18:43:05;;;;;;;32.03;20.97;;;;;1.60;100644.00;;;;10429028;28;20614;-75
2021/01/01 18:48:08;;;;;;;28.23;18.70;;;;;1.60;100647.00;;;;10443052;28;20553;-75
2021/01/01 18:53:10;;;;;;;31.97;20.13;;;;;1.60;100647.00;;;;10385150;28;20203;-75
2021/01/01 18:58:17;;;;;;;35.17;21.30;;;;;1.60;100653.00;;;;10400931;28;20207;-75
2021/01/01 19:03:25;;;;;;;32.50;19.87;;;;;1.70;100659.00;;;;10398250;28;20835;-75
2021/01/01 19:08:35;;;;;;;36.83;21.40;;;;;1.70;100651.00;;;;10434567;28;20600;-75
2021/01/01 19:13:37;;;;;;;51.50;28.17;;;;;1.80;100655.00;;;;10448503;28;20238;-75
2021/01/01 19:18:42;;;;;;;46.67;28.07;;;;;1.90;100656.00;;;;10408193;28;20701;-75
2021/01/01 19:23:51;;;;;;;35.53;22.80;;;;;2.00;100661.00;;;;10381525;28;20199;-75
2021/01/01 19:28:57;;;;;;;30.50;19.90;;;;;1.90;100665.00;;;;10397678;28;20229;-75
2021/01/01 19:34:23;;;;;;;37.20;22.53;;;;;1.90;100677.00;;;;10407936;28;20198;-75
2021/01/01 19:39:34;;;;;;;35.63;22.27;;;;;1.80;100690.00;;;;10448016;28;20202;-75
2021/01/01 19:45:08;;;;;;;31.50;20.87;;;;;1.70;100694.00;;;;10449970;28;20222;-75
2021/01/01 19:50:15;;;;;;;26.27;18.67;;;;;1.60;100708.00;;;;10432477;28;20209;-75
2021/01/01 19:55:16;;;;;;;28.50;19.40;;;;;1.40;100708.00;;;;10406900;28;20606;-75
2021/01/01 20:00:26;;;;;;;35.23;21.43;;;;;1.30;100702.00;;;;10417627;28;20205;-75
2021/01/01 20:05:35;;;;;;;33.03;20.47;;;;;1.20;100711.00;;;;10407314;28;20187;-76
2021/01/01 20:10:40;;;;;;;34.80;21.17;;;;;1.20;100715.00;;;;10446418;28;20205;-75
2021/01/01 20:15:42;;;;;;;35.30;22.20;;;;;1.20;100717.00;;;;10428766;28;20198;-75
2021/01/01 20:20:48;;;;;;;34.60;20.53;;;;;1.30;100724.00;;;;10436056;28;20645;-75
2021/01/01 20:25:51;;;;;;;36.90;22.77;;;;;1.40;100732.00;;;;10409187;28;20183;-75
2021/01/01 20:31:02;;;;;;;38.90;23.30;;;;;1.40;100741.00;;;;10419072;28;20210;-75
2021/01/01 20:36:09;;;;;;;36.20;22.63;;;;;1.40;100738.00;;;;10423693;28;20612;-75
2021/01/01 20:41:13;;;;;;;40.50;23.87;;;;;1.50;100734.00;;;;10426942;28;20241;-75
2021/01/01 20:57:04;;;;;;;39.80;25.20;;;;;1.70;100733.00;;;;10369316;28;20340;-76
2021/01/01 21:02:11;;;;;;;46.13;25.67;;;;;1.70;100742.00;;;;10433719;28;20993;-76
2021/01/01 21:07:35;;;;;;;39.47;25.13;;;;;1.70;100743.00;;;;10444877;28;20194;-76
2021/01/01 21:12:52;;;;;;;35.73;23.80;;;;;1.80;100751.00;;;;10435766;28;20207;-76
2021/01/01 21:18:42;;;;;;;38.30;24.17;;;;;1.80;100752.00;;;;10419426;28;20259;-76
2021/01/01 21:24:19;;;;;;;38.40;23.43;;;;;1.80;100761.00;;;;10439263;28;20591;-76
2021/01/01 21:29:29;;;;;;;47.60;27.67;;;;;1.90;100764.00;;;;10340933;28;20227;-75
2021/01/01 21:34:49;;;;;;;52.43;30.80;;;;;1.90;100758.00;;;;10452720;28;20249;-76
2021/01/01 21:40:44;;;;;;;36.67;24.23;;;;;2.00;100760.00;;;;10439440;28;20186;-76
2021/01/01 21:46:07;;;;;;;36.80;23.83;;;;;2.10;100769.00;;;;10398266;28;20214;-76
2021/01/01 21:51:12;;;;;;;35.37;22.27;;;;;2.10;100770.00;;;;10438401;28;20206;-75
2021/01/01 21:56:21;;;;;;;34.40;22.33;;;;;2.20;100769.00;;;;10429253;28;20740;-76
2021/01/01 22:01:25;;;;;;;32.63;22.07;;;;;2.20;100762.00;;;;10440399;28;20283;-76
2021/01/01 22:06:30;;;;;;;31.20;20.73;;;;;2.20;100769.00;;;;10423305;28;20186;-75
2021/01/01 22:11:31;;;;;;;29.93;20.00;;;;;2.20;100766.00;;;;10430010;28;20674;-76
2021/01/01 22:16:33;;;;;;;29.90;19.63;;;;;2.20;100769.00;;;;10438362;28;20197;-76
2021/01/01 22:21:34;;;;;;;27.53;18.50;;;;;2.20;100778.00;;;;10438187;28;20186;-76
2021/01/01 22:26:38;;;;;;;29.80;19.50;;;;;2.30;100770.00;;;;10438791;28;20204;-75
2021/01/01 22:31:39;;;;;;;28.73;19.67;;;;;2.30;100765.00;;;;10436829;28;20229;-76
2021/01/01 22:36:41;;;;;;;28.67;18.10;;;;;2.30;100777.00;;;;10431911;28;20198;-76
2021/01/01 22:41:48;;;;;;;32.90;16.93;;;;;2.30;100772.00;;;;10439519;28;20186;-75
2021/01/01 22:46:51;;;;;;;27.17;16.63;;;;;2.30;100776.00;;;;10422595;28;20352;-76
2021/01/01 22:51:52;;;;;;;29.90;17.47;;;;;2.20;100768.00;;;;10439002;28;20243;-75
2021/01/01 22:56:55;;;;;;;33.27;18.77;;;;;2.20;100778.00;;;;10451918;28;20187;-75
2021/01/01 23:01:57;;;;;;;28.43;17.13;;;;;2.20;100773.00;;;;10429930;28;20205;-75
2021/01/01 23:06:59;;;;;;;27.43;17.77;;;;;2.30;100770.00;;;;10438686;28;20201;-76
2021/01/01 23:12:03;;;;;;;30.20;18.03;;;;;2.30;100776.00;;;;10441406;28;20214;-75
2021/01/01 23:17:07;;;;;;;28.93;17.77;;;;;2.30;100779.00;;;;10423926;28;20198;-76
2021/01/01 23:22:17;;;;;;;32.77;18.87;;;;;2.30;100790.00;;;;10419103;28;20199;-76
2021/01/01 23:27:28;;;;;;;30.03;18.87;;;;;2.30;100788.00;;;;10407231;28;20285;-76
2021/01/01 23:33:03;;;;;;;28.70;17.80;;;;;2.40;100789.00;;;;10403216;28;20203;-76
2021/01/01 23:38:29;;;;;;;28.77;17.10;;;;;2.40;100793.00;;;;10382504;28;20249;-76
2021/01/01 23:43:50;;;;;;;30.77;19.20;;;;;2.40;100791.00;;;;10389374;28;20939;-76
2021/01/01 23:49:11;;;;;;;30.47;19.73;;;;;2.40;100781.00;;;;10431277;28;20202;-76
2021/01/01 23:54:14;;;;;;;29.57;18.53;;;;;2.40;100789.00;;;;10411435;28;20201;-76
2021/01/01 23:59:15;;;;;;;33.83;18.47;;;;;2.50;100798.00;;;;10455065;28;20222;-76
